createdAt,value
2016-02-16T00:00:20.636Z,1024.4
2016-02-16T00:01:20.686Z,1024.44
2016-02-16T00:02:20.736Z,1024.5
2016-02-16T00:03:20.802Z,1024.51
2016-02-16T00:04:20.836Z,1024.55
2016-02-16T00:05:20.900Z,1024.6
2016-02-16T00:06:20.950Z,1024.61
2016-02-16T00:07:20.999Z,1024.65
2016-02-16T00:08:21.049Z,1024.62
2016-02-16T00:09:21.099Z,1024.65
2016-02-16T00:10:21.149Z,1024.68
2016-02-16T00:11:21.198Z,1024.67
2016-02-16T00:12:21.247Z,1024.74
2016-02-16T00:13:21.312Z,1024.72
2016-02-16T00:14:21.362Z,1024.78
2016-02-16T00:15:21.412Z,1024.8
2016-02-16T00:16:21.462Z,1024.87
2016-02-16T00:17:21.510Z,1024.84
2016-02-16T00:18:21.560Z,1024.9
2016-02-16T00:19:21.609Z,1024.89
2016-02-16T00:20:21.660Z,1024.92
2016-02-16T00:21:21.709Z,1024.95
2016-02-16T00:22:21.759Z,1024.97
2016-02-16T00:23:21.824Z,1024.95
2016-02-16T00:24:21.873Z,1024.96
2016-02-16T00:25:21.923Z,1024.93
2016-02-16T00:26:21.973Z,1024.95
2016-02-16T00:27:22.022Z,1024.98
2016-02-16T00:28:22.072Z,1025
2016-02-16T00:29:22.137Z,1025.02
2016-02-16T00:30:22.170Z,1025.1
2016-02-16T00:31:22.236Z,1025.07
2016-02-16T00:32:22.285Z,1025.11
2016-02-16T00:33:22.336Z,1025.13
2016-02-16T00:34:22.385Z,1025.19
2016-02-16T00:35:22.434Z,1025.22
2016-02-16T00:36:22.483Z,1025.22
2016-02-16T00:37:22.533Z,1025.29
2016-02-16T00:38:22.583Z,1025.29
2016-02-16T00:39:22.649Z,1025.23
2016-02-16T00:40:22.697Z,1025.24
2016-02-16T00:41:22.747Z,1025.3
2016-02-16T00:42:22.797Z,1025.29
2016-02-16T00:43:22.847Z,1025.26
2016-02-16T00:44:22.896Z,1025.26
2016-02-16T00:45:22.946Z,1025.29
2016-02-16T00:46:22.995Z,1025.26
2016-02-16T00:47:23.060Z,1025.3
2016-02-16T00:48:23.110Z,1025.22
2016-02-16T00:49:23.159Z,1025.27
2016-02-16T00:50:23.224Z,1025.29
2016-02-16T00:51:23.259Z,1025.32
2016-02-16T00:52:23.308Z,1025.33
2016-02-16T00:53:23.357Z,1025.33
2016-02-16T00:54:23.423Z,1025.36
2016-02-16T00:55:23.472Z,1025.39
2016-02-16T00:56:23.523Z,1025.45
2016-02-16T00:57:23.572Z,1025.4
2016-02-16T00:58:23.620Z,1025.48
2016-02-16T00:59:23.670Z,1025.45
2016-02-16T01:00:23.720Z,1025.42
2016-02-16T01:01:23.770Z,1025.4
2016-02-16T01:02:23.836Z,1025.42
2016-02-16T01:03:23.884Z,1025.41
2016-02-16T01:04:23.934Z,1025.36
2016-02-16T01:05:23.983Z,1025.39
2016-02-16T01:06:24.049Z,1025.48
2016-02-16T01:07:24.083Z,1025.45
2016-02-16T01:08:24.133Z,1025.46
2016-02-16T01:09:24.182Z,1025.53
2016-02-16T01:10:24.246Z,1025.52
2016-02-16T01:11:24.296Z,1025.53
2016-02-16T01:12:24.346Z,1025.56
2016-02-16T01:13:24.396Z,1025.54
2016-02-16T01:14:24.446Z,1025.54
2016-02-16T01:15:24.495Z,1025.55
2016-02-16T01:16:24.544Z,1025.58
2016-02-16T01:17:24.593Z,1025.57
2016-02-16T01:18:24.659Z,1025.64
2016-02-16T01:19:24.710Z,1025.63
2016-02-16T01:20:24.759Z,1025.67
2016-02-16T01:21:24.807Z,1025.66
2016-02-16T01:22:24.857Z,1025.7
2016-02-16T01:23:24.906Z,1025.67
2016-02-16T01:24:24.957Z,1025.65
2016-02-16T01:25:25.007Z,1025.65
2016-02-16T01:26:25.071Z,1025.64
2016-02-16T01:27:25.121Z,1025.66
2016-02-16T01:28:25.170Z,1025.67
2016-02-16T01:29:25.236Z,1025.67
2016-02-16T01:30:25.270Z,1025.71
2016-02-16T01:31:25.320Z,1025.71
2016-02-16T01:32:25.384Z,1025.73
2016-02-16T01:33:25.419Z,1025.72
2016-02-16T01:34:25.483Z,1025.75
2016-02-16T01:35:25.533Z,1025.8
2016-02-16T01:36:25.582Z,1025.81
2016-02-16T01:37:25.633Z,1025.82
2016-02-16T01:38:25.682Z,1025.86
2016-02-16T01:39:25.731Z,1025.84
2016-02-16T01:40:25.780Z,1025.86
2016-02-16T01:41:25.830Z,1025.88
2016-02-16T01:42:25.896Z,1025.92
2016-02-16T01:43:25.946Z,1025.92
2016-02-16T01:44:25.995Z,1025.9
2016-02-16T01:45:26.044Z,1025.93
2016-02-16T01:46:26.093Z,1025.92
2016-02-16T01:47:26.144Z,1025.93
2016-02-16T01:48:26.193Z,1025.89
2016-02-16T01:49:26.258Z,1025.86
2016-02-16T01:50:26.308Z,1025.85
2016-02-16T01:51:26.357Z,1025.87
2016-02-16T01:52:26.407Z,1025.89
2016-02-16T01:53:26.457Z,1025.86
2016-02-16T01:54:26.506Z,1025.86
2016-02-16T01:55:26.571Z,1025.88
2016-02-16T01:56:26.606Z,1025.85
2016-02-16T01:57:26.670Z,1025.85
2016-02-16T01:58:26.720Z,1025.85
2016-02-16T01:59:26.769Z,1025.89
2016-02-16T02:00:26.819Z,1025.88
2016-02-16T02:01:26.869Z,1025.89
2016-02-16T02:02:26.918Z,1025.88
2016-02-16T02:03:26.967Z,1025.88
2016-02-16T02:04:27.034Z,1025.89
2016-02-16T02:05:27.068Z,1025.93
2016-02-16T02:06:27.118Z,1025.93
2016-02-16T02:07:27.182Z,1025.94
2016-02-16T02:08:27.232Z,1025.94
2016-02-16T02:09:27.281Z,1025.9
2016-02-16T02:10:27.332Z,1025.9
2016-02-16T02:11:27.381Z,1025.9
2016-02-16T02:12:27.431Z,1025.91
2016-02-16T02:13:27.480Z,1025.91
2016-02-16T02:14:27.545Z,1025.92
2016-02-16T02:15:27.595Z,1025.92
2016-02-16T02:16:27.644Z,1025.92
2016-02-16T02:17:27.694Z,1025.88
2016-02-16T02:18:27.744Z,1025.91
2016-02-16T02:19:27.793Z,1025.91
2016-02-16T02:20:27.842Z,1025.93
2016-02-16T02:21:27.908Z,1025.95
2016-02-16T02:22:27.957Z,1025.92
2016-02-16T02:23:28.008Z,1025.93
2016-02-16T02:24:28.057Z,1025.96
2016-02-16T02:25:28.105Z,1025.93
2016-02-16T02:26:28.155Z,1025.95
2016-02-16T02:27:28.221Z,1025.93
2016-02-16T02:28:28.255Z,1025.92
2016-02-16T02:29:28.321Z,1025.94
2016-02-16T02:30:28.369Z,1025.93
2016-02-16T02:31:28.418Z,1025.94
2016-02-16T02:32:28.468Z,1025.9
2016-02-16T02:33:28.519Z,1025.86
2016-02-16T02:34:28.568Z,1025.88
2016-02-16T02:35:28.618Z,1025.83
2016-02-16T02:36:28.682Z,1025.81
2016-02-16T02:37:28.732Z,1025.8
2016-02-16T02:38:28.781Z,1025.81
2016-02-16T02:39:28.832Z,1025.81
2016-02-16T02:40:28.881Z,1025.85
2016-02-16T02:41:28.931Z,1025.85
2016-02-16T02:42:28.980Z,1025.86
2016-02-16T02:43:29.029Z,1025.85
2016-02-16T02:44:29.078Z,1025.82
2016-02-16T02:45:29.144Z,1025.83
2016-02-16T02:46:29.195Z,1025.83
2016-02-16T02:47:29.244Z,1025.82
2016-02-16T02:48:29.292Z,1025.86
2016-02-16T02:49:29.342Z,1025.86
2016-02-16T02:50:29.391Z,1025.89
2016-02-16T02:51:29.458Z,1025.92
2016-02-16T02:52:29.508Z,1025.96
2016-02-16T02:53:29.556Z,1025.93
2016-02-16T02:54:29.605Z,1025.96
2016-02-16T02:55:29.655Z,1025.94
2016-02-16T02:56:29.705Z,1025.95
2016-02-16T02:57:29.755Z,1025.9
2016-02-16T02:58:29.805Z,1025.94
2016-02-16T02:59:29.869Z,1025.9
2016-02-16T03:00:29.919Z,1025.92
2016-02-16T03:01:29.968Z,1025.92
2016-02-16T03:02:30.018Z,1025.9
2016-02-16T03:03:30.068Z,1025.93
2016-02-16T03:04:30.124Z,1025.92
2016-02-16T03:05:30.172Z,1025.91
2016-02-16T03:06:30.222Z,1025.9
2016-02-16T03:07:30.271Z,1025.88
2016-02-16T03:08:30.338Z,1025.88
2016-02-16T03:09:30.371Z,1025.85
2016-02-16T03:10:30.436Z,1025.87
2016-02-16T03:11:30.485Z,1025.89
2016-02-16T03:12:30.535Z,1025.91
2016-02-16T03:13:30.585Z,1025.9
2016-02-16T03:14:30.635Z,1025.91
2016-02-16T03:15:30.684Z,1025.89
2016-02-16T03:16:30.734Z,1025.9
2016-02-16T03:17:30.783Z,1025.91
2016-02-16T03:18:30.848Z,1025.87
2016-02-16T03:19:30.898Z,1025.9
2016-02-16T03:20:30.948Z,1025.89
2016-02-16T03:21:30.998Z,1025.86
2016-02-16T03:22:31.047Z,1025.87
2016-02-16T03:23:31.095Z,1025.84
2016-02-16T03:24:31.145Z,1025.86
2016-02-16T03:25:31.211Z,1025.89
2016-02-16T03:26:31.261Z,1025.88
2016-02-16T03:27:31.311Z,1025.83
2016-02-16T03:28:31.359Z,1025.9
2016-02-16T03:29:31.408Z,1025.89
2016-02-16T03:30:31.458Z,1025.91
2016-02-16T03:31:31.508Z,1025.89
2016-02-16T03:32:31.574Z,1025.95
2016-02-16T03:33:31.608Z,1025.96
2016-02-16T03:34:31.657Z,1025.95
2016-02-16T03:35:31.722Z,1025.97
2016-02-16T03:36:31.771Z,1025.98
2016-02-16T03:37:31.822Z,1026.04
2016-02-16T03:38:31.871Z,1026.02
2016-02-16T03:39:31.921Z,1026.06
2016-02-16T03:40:31.970Z,1026.08
2016-02-16T03:41:32.019Z,1026.11
2016-02-16T03:42:32.084Z,1026.13
2016-02-16T03:43:32.134Z,1026.13
2016-02-16T03:44:32.184Z,1026.14
2016-02-16T03:45:32.234Z,1026.16
2016-02-16T03:46:32.282Z,1026.2
2016-02-16T03:47:32.332Z,1026.21
2016-02-16T03:48:32.381Z,1026.24
2016-02-16T03:49:32.448Z,1026.22
2016-02-16T03:50:32.498Z,1026.25
2016-02-16T03:51:32.546Z,1026.24
2016-02-16T03:52:32.595Z,1026.21
2016-02-16T03:53:32.645Z,1026.31
2016-02-16T03:54:32.695Z,1026.31
2016-02-16T03:55:32.761Z,1026.28
2016-02-16T03:56:32.810Z,1026.32
2016-02-16T03:57:32.859Z,1026.37
2016-02-16T03:58:32.908Z,1026.35
2016-02-16T03:59:32.958Z,1026.38
2016-02-16T04:00:33.008Z,1026.4
2016-02-16T04:01:33.058Z,1026.41
2016-02-16T04:02:33.108Z,1026.34
2016-02-16T04:03:33.172Z,1026.37
2016-02-16T04:04:33.222Z,1026.4
2016-02-16T04:05:33.271Z,1026.42
2016-02-16T04:06:33.321Z,1026.41
2016-02-16T04:07:33.371Z,1026.43
2016-02-16T04:08:33.420Z,1026.43
2016-02-16T04:09:33.469Z,1026.45
2016-02-16T04:10:33.535Z,1026.44
2016-02-16T04:11:33.585Z,1026.42
2016-02-16T04:12:33.635Z,1026.47
2016-02-16T04:13:33.684Z,1026.51
2016-02-16T04:14:33.732Z,1026.54
2016-02-16T04:15:33.783Z,1026.53
2016-02-16T04:16:33.832Z,1026.57
2016-02-16T04:17:33.882Z,1026.54
2016-02-16T04:18:33.948Z,1026.59
2016-02-16T04:19:33.996Z,1026.65
2016-02-16T04:20:34.046Z,1026.63
2016-02-16T04:21:34.096Z,1026.69
2016-02-16T04:22:34.146Z,1026.67
2016-02-16T04:23:34.195Z,1026.75
2016-02-16T04:24:34.244Z,1026.68
2016-02-16T04:25:34.310Z,1026.76
2016-02-16T04:26:34.359Z,1026.8
2016-02-16T04:27:34.409Z,1026.8
2016-02-16T04:28:34.459Z,1026.83
2016-02-16T04:29:34.508Z,1026.83
2016-02-16T04:30:34.555Z,1026.83
2016-02-16T04:31:34.593Z,1026.86
2016-02-16T04:32:34.628Z,1026.85
2016-02-16T04:33:34.680Z,1026.85
2016-02-16T04:34:34.717Z,1026.87
2016-02-16T04:35:34.755Z,1026.89
2016-02-16T04:36:34.800Z,1026.9
2016-02-16T04:37:34.844Z,1026.9
2016-02-16T04:38:34.888Z,1026.93
2016-02-16T04:39:34.949Z,1026.92
2016-02-16T04:40:34.979Z,1026.9
2016-02-16T04:41:35.043Z,1026.92
2016-02-16T04:42:35.090Z,1026.91
2016-02-16T04:43:35.138Z,1026.95
2016-02-16T04:44:35.185Z,1026.99
2016-02-16T04:45:35.235Z,1027.02
2016-02-16T04:46:35.283Z,1027
2016-02-16T04:47:35.332Z,1026.99
2016-02-16T04:48:35.396Z,1026.98
2016-02-16T04:49:35.445Z,1026.96
2016-02-16T04:50:35.494Z,1026.92
2016-02-16T04:51:35.544Z,1026.9
2016-02-16T04:52:35.594Z,1026.96
2016-02-16T04:53:35.658Z,1027.02
2016-02-16T04:54:35.707Z,1027.02
2016-02-16T04:55:35.757Z,1027.02
2016-02-16T04:56:35.807Z,1027.03
2016-02-16T04:57:35.856Z,1027.07
2016-02-16T04:58:35.906Z,1027.06
2016-02-16T04:59:35.956Z,1027.07
2016-02-16T05:00:36.005Z,1027.09
2016-02-16T05:01:36.054Z,1027.08
2016-02-16T05:02:36.120Z,1027.12
2016-02-16T05:03:36.170Z,1027.15
2016-02-16T05:04:36.220Z,1027.14
2016-02-16T05:05:36.269Z,1027.1
2016-02-16T05:06:36.334Z,1027.11
2016-02-16T05:07:36.367Z,1027.15
2016-02-16T05:08:36.418Z,1027.14
2016-02-16T05:09:36.467Z,1027.15
2016-02-16T05:10:36.532Z,1027.12
2016-02-16T05:11:36.581Z,1027.16
2016-02-16T05:12:36.631Z,1027.15
2016-02-16T05:13:36.681Z,1027.13
2016-02-16T05:14:36.731Z,1027.11
2016-02-16T05:15:36.780Z,1027.12
2016-02-16T05:16:36.830Z,1027.17
2016-02-16T05:17:36.880Z,1027.17
2016-02-16T05:18:36.928Z,1027.18
2016-02-16T05:19:36.994Z,1027.2
2016-02-16T05:20:37.043Z,1027.21
2016-02-16T05:21:37.093Z,1027.23
2016-02-16T05:22:37.143Z,1027.22
2016-02-16T05:23:37.192Z,1027.26
2016-02-16T05:24:37.242Z,1027.29
2016-02-16T05:25:37.291Z,1027.28
2016-02-16T05:26:37.357Z,1027.28
2016-02-16T05:27:37.407Z,1027.3
2016-02-16T05:28:37.455Z,1027.31
2016-02-16T05:29:37.505Z,1027.35
2016-02-16T05:30:37.555Z,1027.36
2016-02-16T05:31:37.605Z,1027.36
2016-02-16T05:32:37.670Z,1027.33
2016-02-16T05:33:37.703Z,1027.37
2016-02-16T05:34:37.768Z,1027.4
2016-02-16T05:35:37.818Z,1027.39
2016-02-16T05:36:37.868Z,1027.4
2016-02-16T05:37:37.918Z,1027.34
2016-02-16T05:38:37.967Z,1027.37
2016-02-16T05:39:38.016Z,1027.42
2016-02-16T05:40:38.067Z,1027.41
2016-02-16T05:41:38.131Z,1027.47
2016-02-16T05:42:38.180Z,1027.47
2016-02-16T05:43:38.230Z,1027.5
2016-02-16T05:44:38.311Z,1027.52
2016-02-16T05:45:38.330Z,1027.52
2016-02-16T05:46:38.379Z,1027.55
2016-02-16T05:47:38.429Z,1027.54
2016-02-16T05:48:38.494Z,1027.54
2016-02-16T05:49:38.543Z,1027.55
2016-02-16T05:50:38.593Z,1027.61
2016-02-16T05:51:38.642Z,1027.6
2016-02-16T05:52:38.692Z,1027.57
2016-02-16T05:53:38.741Z,1027.63
2016-02-16T05:54:38.791Z,1027.62
2016-02-16T05:55:38.857Z,1027.64
2016-02-16T05:56:38.905Z,1027.69
2016-02-16T05:57:38.956Z,1027.65
2016-02-16T05:58:39.005Z,1027.63
2016-02-16T05:59:39.054Z,1027.66
2016-02-16T06:00:39.105Z,1027.63
2016-02-16T06:01:39.154Z,1027.62
2016-02-16T06:02:39.219Z,1027.62
2016-02-16T06:03:39.268Z,1027.61
2016-02-16T06:04:39.318Z,1027.6
2016-02-16T06:05:39.369Z,1027.62
2016-02-16T06:06:39.418Z,1027.63
2016-02-16T06:07:39.468Z,1027.66
2016-02-16T06:08:39.517Z,1027.71
2016-02-16T06:09:39.566Z,1027.72
2016-02-16T06:10:39.616Z,1027.74
2016-02-16T06:11:39.682Z,1027.81
2016-02-16T06:12:39.731Z,1027.84
2016-02-16T06:13:39.780Z,1027.87
2016-02-16T06:14:39.830Z,1027.88
2016-02-16T06:15:39.880Z,1027.89
2016-02-16T06:16:39.929Z,1027.88
2016-02-16T06:17:39.995Z,1027.9
2016-02-16T06:18:40.029Z,1027.9
2016-02-16T06:19:40.093Z,1027.96
2016-02-16T06:20:40.143Z,1027.96
2016-02-16T06:21:40.192Z,1027.97
2016-02-16T06:22:40.243Z,1028
2016-02-16T06:23:40.292Z,1028.09
2016-02-16T06:24:40.342Z,1028.07
2016-02-16T06:25:40.406Z,1028.11
2016-02-16T06:26:40.440Z,1028.14
2016-02-16T06:27:40.506Z,1028.13
2016-02-16T06:28:40.555Z,1028.19
2016-02-16T06:29:40.605Z,1028.16
2016-02-16T06:30:40.655Z,1028.23
2016-02-16T06:31:40.703Z,1028.22
2016-02-16T06:32:40.770Z,1028.19
2016-02-16T06:33:40.803Z,1028.23
2016-02-16T06:34:40.869Z,1028.19
2016-02-16T06:35:40.934Z,1028.22
2016-02-16T06:36:40.968Z,1028.25
2016-02-16T06:37:41.016Z,1028.26
2016-02-16T06:38:41.067Z,1028.27
2016-02-16T06:39:41.116Z,1028.29
2016-02-16T06:40:41.166Z,1028.28
2016-02-16T06:41:41.215Z,1028.3
2016-02-16T06:42:41.280Z,1028.35
2016-02-16T06:43:41.330Z,1028.36
2016-02-16T06:44:41.379Z,1028.38
2016-02-16T06:45:41.429Z,1028.44
2016-02-16T06:46:41.494Z,1028.46
2016-02-16T06:47:41.528Z,1028.43
2016-02-16T06:48:41.594Z,1028.46
2016-02-16T06:49:41.627Z,1028.45
2016-02-16T06:50:41.693Z,1028.43
2016-02-16T06:51:41.742Z,1028.5
2016-02-16T06:52:41.807Z,1028.54
2016-02-16T06:53:41.842Z,1028.56
2016-02-16T06:54:41.891Z,1028.57
2016-02-16T06:55:41.941Z,1028.62
2016-02-16T06:56:42.006Z,1028.61
2016-02-16T06:57:42.056Z,1028.57
2016-02-16T06:58:42.105Z,1028.55
2016-02-16T06:59:42.154Z,1028.57
2016-02-16T07:00:42.204Z,1028.61
2016-02-16T07:01:42.253Z,1028.66
2016-02-16T07:02:42.319Z,1028.65
2016-02-16T07:03:42.353Z,1028.68
2016-02-16T07:04:42.417Z,1028.69
2016-02-16T07:05:42.467Z,1028.74
2016-02-16T07:06:42.517Z,1028.75
2016-02-16T07:07:42.566Z,1028.73
2016-02-16T07:08:42.616Z,1028.71
2016-02-16T07:09:42.666Z,1028.73
2016-02-16T07:10:42.716Z,1028.68
2016-02-16T07:11:42.780Z,1028.7
2016-02-16T07:12:42.830Z,1028.72
2016-02-16T07:13:42.880Z,1028.76
2016-02-16T07:14:42.929Z,1028.76
2016-02-16T07:15:42.979Z,1028.8
2016-02-16T07:16:43.029Z,1028.81
2016-02-16T07:17:43.077Z,1028.84
2016-02-16T07:18:43.143Z,1028.79
2016-02-16T07:19:43.193Z,1028.81
2016-02-16T07:20:43.242Z,1028.82
2016-02-16T07:21:43.292Z,1028.85
2016-02-16T07:22:43.340Z,1028.85
2016-02-16T07:23:43.391Z,1028.85
2016-02-16T07:24:43.440Z,1028.93
2016-02-16T07:25:43.490Z,1028.93
2016-02-16T07:26:43.556Z,1028.99
2016-02-16T07:27:43.605Z,1028.99
2016-02-16T07:28:43.654Z,1029.01
2016-02-16T07:29:43.704Z,1028.97
2016-02-16T07:30:43.754Z,1028.99
2016-02-16T07:31:43.803Z,1028.99
2016-02-16T07:32:43.853Z,1028.97
2016-02-16T07:33:43.902Z,1029.07
2016-02-16T07:34:43.967Z,1029.03
2016-02-16T07:35:44.017Z,1029.02
2016-02-16T07:36:44.066Z,1029.02
2016-02-16T07:37:44.116Z,1029.04
2016-02-16T07:38:44.166Z,1029.07
2016-02-16T07:39:44.216Z,1029.08
2016-02-16T07:40:44.264Z,1029.1
2016-02-16T07:41:44.330Z,1029.09
2016-02-16T07:42:44.363Z,1029.13
2016-02-16T07:43:44.430Z,1029.11
2016-02-16T07:44:44.479Z,1029.11
2016-02-16T07:45:44.528Z,1029.16
2016-02-16T07:46:44.577Z,1029.14
2016-02-16T07:47:44.627Z,1029.21
2016-02-16T07:48:44.677Z,1029.2
2016-02-16T07:49:44.727Z,1029.26
2016-02-16T07:50:44.791Z,1029.26
2016-02-16T07:51:44.841Z,1029.31
2016-02-16T07:52:44.891Z,1029.3
2016-02-16T07:53:44.940Z,1029.31
2016-02-16T07:54:44.990Z,1029.26
2016-02-16T07:55:45.040Z,1029.29
2016-02-16T07:56:45.089Z,1029.29
2016-02-16T07:57:45.139Z,1029.27
2016-02-16T07:58:45.188Z,1029.29
2016-02-16T07:59:45.237Z,1029.32
2016-02-16T08:00:45.303Z,1029.35
2016-02-16T08:01:45.337Z,1029.33
2016-02-16T08:02:45.402Z,1029.35
2016-02-16T08:03:45.437Z,1029.41
2016-02-16T08:04:45.486Z,1029.4
2016-02-16T08:05:45.536Z,1029.43
2016-02-16T08:06:45.600Z,1029.44
2016-02-16T08:07:45.634Z,1029.48
2016-02-16T08:08:45.683Z,1029.5
2016-02-16T08:09:45.750Z,1029.47
2016-02-16T08:10:45.783Z,1029.47
2016-02-16T08:11:45.848Z,1029.51
2016-02-16T08:12:45.883Z,1029.46
2016-02-16T08:13:45.933Z,1029.48
2016-02-16T08:14:45.981Z,1029.46
2016-02-16T08:15:46.046Z,1029.45
2016-02-16T08:16:46.080Z,1029.45
2016-02-16T08:17:46.146Z,1029.45
2016-02-16T08:18:46.180Z,1029.48
2016-02-16T08:19:46.260Z,1029.51
2016-02-16T08:20:46.279Z,1029.48
2016-02-16T08:21:46.343Z,1029.51
2016-02-16T08:22:46.377Z,1029.51
2016-02-16T08:23:46.427Z,1029.49
2016-02-16T08:24:46.477Z,1029.47
2016-02-16T08:25:46.526Z,1029.49
2016-02-16T08:26:46.576Z,1029.51
2016-02-16T08:27:46.626Z,1029.55
2016-02-16T08:28:46.676Z,1029.54
2016-02-16T08:29:46.725Z,1029.52
2016-02-16T08:30:46.774Z,1029.54
2016-02-16T08:31:46.823Z,1029.54
2016-02-16T08:32:46.873Z,1029.6
2016-02-16T08:33:46.923Z,1029.61
2016-02-16T08:34:46.972Z,1029.6
2016-02-16T08:35:47.022Z,1029.62
2016-02-16T08:36:47.072Z,1029.66
2016-02-16T08:37:47.106Z,1029.61
2016-02-16T08:38:47.170Z,1029.62
2016-02-16T08:39:47.205Z,1029.63
2016-02-16T08:40:47.255Z,1029.65
2016-02-16T08:41:47.303Z,1029.65
2016-02-16T08:42:47.353Z,1029.72
2016-02-16T08:43:47.403Z,1029.71
2016-02-16T08:44:47.452Z,1029.73
2016-02-16T08:45:47.503Z,1029.7
2016-02-16T08:46:47.552Z,1029.74
2016-02-16T08:47:47.602Z,1029.75
2016-02-16T08:48:47.636Z,1029.74
2016-02-16T08:49:47.700Z,1029.74
2016-02-16T08:50:47.749Z,1029.75
2016-02-16T08:51:47.799Z,1029.82
2016-02-16T08:52:47.833Z,1029.79
2016-02-16T08:53:47.899Z,1029.79
2016-02-16T08:54:47.932Z,1029.81
2016-02-16T08:55:47.982Z,1029.81
2016-02-16T08:56:48.032Z,1029.79
2016-02-16T08:57:48.081Z,1029.8
2016-02-16T08:58:48.132Z,1029.8
2016-02-16T08:59:48.181Z,1029.8
2016-02-16T09:00:48.215Z,1029.81
2016-02-16T09:01:48.264Z,1029.81
2016-02-16T09:02:48.314Z,1029.84
2016-02-16T09:03:48.362Z,1029.84
2016-02-16T09:04:48.412Z,1029.85
2016-02-16T09:05:48.462Z,1029.82
2016-02-16T09:06:48.512Z,1029.83
2016-02-16T09:07:48.561Z,1029.87
2016-02-16T09:08:48.595Z,1029.88
2016-02-16T09:09:48.645Z,1029.88
2016-02-16T09:10:48.695Z,1029.88
2016-02-16T09:11:48.744Z,1029.94
2016-02-16T09:12:48.794Z,1029.88
2016-02-16T09:13:48.844Z,1029.87
2016-02-16T09:14:48.892Z,1029.88
2016-02-16T09:15:48.942Z,1029.91
2016-02-16T09:16:49.022Z,1029.88
2016-02-16T09:17:49.025Z,1029.93
2016-02-16T09:18:49.075Z,1029.95
2016-02-16T09:19:49.124Z,1029.92
2016-02-16T09:20:49.175Z,1029.93
2016-02-16T09:21:49.224Z,1029.92
2016-02-16T09:22:49.274Z,1029.94
2016-02-16T09:23:49.324Z,1029.89
2016-02-16T09:24:49.466Z,1029.91
2016-02-16T09:25:49.419Z,1029.91
2016-02-16T09:26:49.469Z,1029.86
2016-02-16T09:27:49.519Z,1029.84
2016-02-16T09:28:49.568Z,1029.86
2016-02-16T09:29:49.618Z,1029.83
2016-02-16T09:30:49.668Z,1029.9
2016-02-16T09:31:49.701Z,1029.88
2016-02-16T09:32:49.751Z,1029.94
2016-02-16T09:33:49.801Z,1029.95
2016-02-16T09:34:49.866Z,1029.97
2016-02-16T09:35:49.900Z,1030.01
2016-02-16T09:36:49.965Z,1030.02
2016-02-16T09:37:50.015Z,1030.04
2016-02-16T09:38:50.049Z,1030.07
2016-02-16T09:39:50.114Z,1030.07
2016-02-16T09:40:50.148Z,1030.13
2016-02-16T09:41:50.212Z,1030.14
2016-02-16T09:42:50.247Z,1030.13
2016-02-16T09:43:50.297Z,1030.12
2016-02-16T09:44:50.346Z,1030.12
2016-02-16T09:45:50.395Z,1030.11
2016-02-16T09:46:50.445Z,1030.13
2016-02-16T09:47:50.494Z,1030.13
2016-02-16T09:48:50.544Z,1030.16
2016-02-16T09:49:50.608Z,1030.16
2016-02-16T09:50:50.644Z,1030.18
2016-02-16T09:51:50.709Z,1030.18
2016-02-16T09:52:50.742Z,1030.14
2016-02-16T09:53:50.792Z,1030.19
2016-02-16T09:54:50.841Z,1030.17
2016-02-16T09:55:50.907Z,1030.17
2016-02-16T09:56:50.940Z,1030.18
2016-02-16T09:57:51.005Z,1030.2
2016-02-16T09:58:51.055Z,1030.17
2016-02-16T09:59:51.105Z,1030.16
2016-02-16T10:00:51.155Z,1030.15
2016-02-16T10:01:51.188Z,1030.18
2016-02-16T10:02:51.254Z,1030.13
2016-02-16T10:03:51.303Z,1030.12
2016-02-16T10:04:51.353Z,1030.11
2016-02-16T10:05:51.402Z,1030.07
2016-02-16T10:06:51.452Z,1030.09
2016-02-16T10:07:51.501Z,1030.08
2016-02-16T10:08:51.551Z,1030.03
2016-02-16T10:09:51.600Z,1030.06
2016-02-16T10:10:51.650Z,1030.06
2016-02-16T10:11:51.700Z,1030.11
2016-02-16T10:12:51.749Z,1030.11
2016-02-16T10:13:51.799Z,1030.1
2016-02-16T10:14:51.849Z,1030.11
2016-02-16T10:15:51.898Z,1030.08
2016-02-16T10:16:51.948Z,1030.13
2016-02-16T10:17:52.044Z,1030.11
2016-02-16T10:18:52.047Z,1030.12
2016-02-16T10:19:52.097Z,1030.09
2016-02-16T10:20:52.147Z,1030.14
2016-02-16T10:21:52.211Z,1030.15
2016-02-16T10:22:52.245Z,1030.14
2016-02-16T10:23:52.294Z,1030.18
2016-02-16T10:24:52.344Z,1030.17
2016-02-16T10:25:52.393Z,1030.18
2016-02-16T10:26:52.443Z,1030.19
2016-02-16T10:27:52.493Z,1030.12
2016-02-16T10:28:52.558Z,1030.14
2016-02-16T10:29:52.592Z,1030.1
2016-02-16T10:30:52.657Z,1030.12
2016-02-16T10:31:52.691Z,1030.15
2016-02-16T10:32:52.756Z,1030.17
2016-02-16T10:33:52.790Z,1030.14
2016-02-16T10:34:52.854Z,1030.16
2016-02-16T10:35:52.905Z,1030.14
2016-02-16T10:36:52.955Z,1030.2
2016-02-16T10:37:53.004Z,1030.2
2016-02-16T10:38:53.053Z,1030.28
2016-02-16T10:39:53.103Z,1030.26
2016-02-16T10:40:53.153Z,1030.24
2016-02-16T10:41:53.202Z,1030.24
2016-02-16T10:42:53.251Z,1030.24
2016-02-16T10:43:53.301Z,1030.27
2016-02-16T10:44:53.351Z,1030.24
2016-02-16T10:45:53.401Z,1030.25
2016-02-16T10:46:53.450Z,1030.21
2016-02-16T10:47:53.499Z,1030.3
2016-02-16T10:48:53.550Z,1030.29
2016-02-16T10:49:53.600Z,1030.32
2016-02-16T10:50:53.648Z,1030.29
2016-02-16T10:51:53.698Z,1030.28
2016-02-16T10:52:53.763Z,1030.34
2016-02-16T10:53:53.797Z,1030.31
2016-02-16T10:54:53.846Z,1030.35
2016-02-16T10:55:53.911Z,1030.36
2016-02-16T10:56:53.947Z,1030.31
2016-02-16T10:57:53.996Z,1030.32
2016-02-16T10:58:54.061Z,1030.36
2016-02-16T10:59:54.110Z,1030.35
2016-02-16T11:00:54.160Z,1030.34
2016-02-16T11:01:54.209Z,1030.35
2016-02-16T11:02:54.260Z,1030.35
2016-02-16T11:03:54.308Z,1030.31
2016-02-16T11:04:54.358Z,1030.35
2016-02-16T11:05:54.407Z,1030.34
2016-02-16T11:06:54.457Z,1030.3
2016-02-16T11:07:54.506Z,1030.34
2016-02-16T11:08:54.557Z,1030.34
2016-02-16T11:09:54.606Z,1030.3
2016-02-16T11:10:54.656Z,1030.3
2016-02-16T11:11:54.705Z,1030.32
2016-02-16T11:12:54.754Z,1030.24
2016-02-16T11:13:54.804Z,1030.22
2016-02-16T11:14:54.853Z,1030.24
2016-02-16T11:15:54.903Z,1030.22
2016-02-16T11:16:54.967Z,1030.21
2016-02-16T11:17:55.003Z,1030.28
2016-02-16T11:18:55.068Z,1030.25
2016-02-16T11:19:55.117Z,1030.26
2016-02-16T11:20:55.167Z,1030.26
2016-02-16T11:21:55.216Z,1030.25
2016-02-16T11:22:55.266Z,1030.23
2016-02-16T11:23:55.316Z,1030.22
2016-02-16T11:24:55.381Z,1030.23
2016-02-16T11:25:55.414Z,1030.23
2016-02-16T11:26:55.464Z,1030.19
2016-02-16T11:27:55.519Z,1030.18
2016-02-16T11:28:55.568Z,1030.14
2016-02-16T11:29:55.618Z,1030.13
2016-02-16T11:30:55.667Z,1030.13
2016-02-16T11:31:55.716Z,1030.15
2016-02-16T11:32:55.782Z,1030.16
2016-02-16T11:33:55.815Z,1030.16
2016-02-16T11:34:55.865Z,1030.12
2016-02-16T11:35:55.915Z,1030.12
2016-02-16T11:36:55.995Z,1030.15
2016-02-16T11:37:56.029Z,1030.16
2016-02-16T11:38:56.079Z,1030.13
2016-02-16T11:39:56.129Z,1030.17
2016-02-16T11:40:56.179Z,1030.14
2016-02-16T11:41:56.228Z,1030.17
2016-02-16T11:42:56.293Z,1030.19
2016-02-16T11:43:56.342Z,1030.19
2016-02-16T11:44:56.392Z,1030.22
2016-02-16T11:45:56.426Z,1030.21
2016-02-16T11:46:56.492Z,1030.21
2016-02-16T11:47:56.525Z,1030.22
2016-02-16T11:48:56.575Z,1030.21
2016-02-16T11:49:56.639Z,1030.21
2016-02-16T11:50:56.674Z,1030.23
2016-02-16T11:51:56.755Z,1030.25
2016-02-16T11:52:56.789Z,1030.25
2016-02-16T11:53:56.838Z,1030.24
2016-02-16T11:54:56.888Z,1030.24
2016-02-16T11:55:56.938Z,1030.26
2016-02-16T11:56:57.002Z,1030.23
2016-02-16T11:57:57.052Z,1030.22
2016-02-16T11:58:57.086Z,1030.28
2016-02-16T11:59:57.136Z,1030.26
2016-02-16T12:00:57.201Z,1030.24
2016-02-16T12:01:57.251Z,1030.25
2016-02-16T12:02:57.299Z,1030.25
2016-02-16T12:03:57.350Z,1030.22
2016-02-16T12:04:57.420Z,1030.23
2016-02-16T12:05:57.454Z,1030.25
2016-02-16T12:06:57.504Z,1030.22
2016-02-16T12:07:57.538Z,1030.2
2016-02-16T12:08:57.603Z,1030.19